Ternholm — OWIM2 — position and weather

sailwx.info

Track history (hours):
 
Tides and Currents Weather Stations Pressure Air Temp Water Temp Dewpoint Dewpoint Depression Visibility Wind Speed Wind Dir Waves Ship Positions

Ternholm

Last reported at 2015-May-22 07:33 UTC. Time now 2015-May-22 08:33 UTC.
Position N 52°28' E 004°09'.

Length 141 m; draft 7.9 m.

Type: Ship (hazmat cat B). MMSI: 219076000.

Date/timePositionNaut miles runAvg speedWind from/ knotsBaromVisibWave heightAir tempDewpointWater temp
2015-May-22 07:33N 52°28' E 004°09'0 0.0
2015-May-22 06:33N 52°28' E 004°09'0 0.0
2015-May-22 05:30N 52°28' E 004°09'0 0.0
2015-May-22 04:33N 52°28' E 004°09'0 0.0
2015-May-22 03:33N 52°28' E 004°09'0 0.0
2015-May-22 02:33N 52°28' E 004°09'0 0.1
2015-May-22 01:33N 52°28' E 004°09'0 0.0
2015-May-22 00:33N 52°28' E 004°09'0 0.0
2015-May-21 23:33N 52°28' E 004°09'0 0.0
2015-May-21 22:33N 52°28' E 004°09'0 0.1
2015-May-21 21:33N 52°28' E 004°09'0 0.1
2015-May-21 20:33N 52°28' E 004°09'0 0.0
2015-May-21 19:33N 52°28' E 004°09'0 0.0
2015-May-21 18:33N 52°28' E 004°09'0 0.0
2015-May-21 17:33N 52°28' E 004°09'0 0.0
2015-May-21 16:33N 52°28' E 004°09'0 0.0
2015-May-21 15:33N 52°28' E 004°09'1 0.6
2015-May-21 14:33N 52°27' E 004°09'9 9.4
2015-May-21 13:33N 52°37' E 004°04'1212.5
2015-May-21 12:33N 52°48' E 003°58'2411.8
2015-May-21 10:33N 53°08' E 004°21'1211.7
2015-May-21 09:29N 53°19' E 004°30'1111.0
2015-May-21 08:31N 53°29' E 004°38'1010.3
2015-May-21 07:33N 53°32' E 004°53'1010.2
2015-May-21 06:33N 53°36' E 005°09'1110.7
2015-May-21 05:33N 53°40' E 005°26'1111.3
2015-May-21 04:33N 53°43' E 005°44'1211.5
2015-May-21 03:33N 53°47' E 006°02'4410.9
2015-May-20 23:33N 53°58' E 007°14'1010.1
2015-May-20 22:33N 54°00' E 007°31'10 9.8
2015-May-20 21:33N 54°02' E 007°47'1110.7
2015-May-20 20:33N 54°01' E 008°05'1111.3
2015-May-20 19:33N 53°59' E 008°24'1514.8
2015-May-20 18:33N 53°51' E 008°45'1413.9
2015-May-20 17:33N 53°54' E 009°09'1 1.2
2015-May-20 16:33N 53°54' E 009°10'8 7.8
2015-May-20 15:33N 54°01' E 009°18'8 8.1
2015-May-20 14:33N 54°09' E 009°21'3 3.1
2015-May-20 13:33N 54°10' E 009°26'5 4.7
2015-May-20 12:33N 54°12' E 009°33'5 4.5
2015-May-20 11:32N 54°16' E 009°37'5 4.6
2015-May-20 10:33N 54°19' E 009°43'7 7.3
2015-May-20 09:33N 54°21' E 009°55'4 4.2
2015-May-20 08:33N 54°22' E 010°02'4 3.9
2015-May-20 07:33N 54°22' E 010°09'1 1.4
2015-May-20 06:33N 54°23' E 010°11'8 8.0
2015-May-20 05:33N 54°30' E 010°17'6 6.0
2015-May-20 04:33N 54°32' E 010°27'9 8.6
2015-May-20 03:33N 54°34' E 010°41'1110.7
2015-May-20 02:33N 54°36' E 010°59'1111.0
2015-May-20 01:33N 54°34' E 011°18'1211.6
2015-May-20 00:33N 54°29' E 011°36'1111.2
2015-May-19 23:33N 54°26' E 011°55'1110.2
2015-May-19 22:30N 54°29' E 012°12'2310.9
2015-May-19 20:26N 54°46' E 012°39'3711.2
2015-May-19 17:09N 54°45' E 013°42'2111.5
2015-May-19 15:17N 54°39' E 014°18'811.1
2015-May-19 14:33N 54°39' E 014°32'1111.4
2015-May-19 13:33N 54°42' E 014°51'1111.4
2015-May-19 12:33N 54°46' E 015°09'1111.4
2015-May-19 11:33N 54°50' E 015°28'8311.2
2015-May-19 04:09N 55°05' E 017°50'1811.4
2015-May-19 02:33N 55°05' E 018°22'1111.5
2015-May-19 01:33N 55°01' E 018°41'1111.0
2015-May-19 00:34N 54°54' E 018°56'1111.4
2015-May-18 23:33N 54°44' E 019°04'1110.8
2015-May-18 22:33N 54°33' E 019°04'10 9.8
2015-May-18 21:33N 54°26' E 018°52'6 5.3
2015-May-18 20:31N 54°24' E 018°43'0 0.0
2015-May-18 19:31N 54°24' E 018°43'0 0.0
2015-May-18 18:28N 54°24' E 018°43'0 0.0
2015-May-18 17:31N 54°24' E 018°43'0 0.0
2015-May-18 16:31N 54°24' E 018°43'0 0.0
2015-May-18 15:31N 54°24' E 018°43'0 0.0
2015-May-18 14:31N 54°24' E 018°43'0 0.0
2015-May-18 13:33N 54°24' E 018°43'0 0.0
2015-May-18 12:33N 54°24' E 018°43'0 0.0
2015-May-18 11:33N 54°24' E 018°43'0 0.0
2015-May-18 10:33N 54°24' E 018°43'0 0.0
2015-May-18 09:33N 54°24' E 018°43'0 0.0
2015-May-18 08:33N 54°24' E 018°43'0 0.0
2015-May-18 07:33N 54°24' E 018°43'0 0.0
2015-May-18 06:33N 54°24' E 018°43'0 0.0
2015-May-18 05:33N 54°24' E 018°43'0 0.0
2015-May-18 04:33N 54°24' E 018°43'0 0.0
2015-May-18 03:33N 54°24' E 018°43'0 0.0
2015-May-18 02:33N 54°24' E 018°43'0 0.0
2015-May-18 01:33N 54°24' E 018°43'0 0.0
2015-May-18 00:33N 54°24' E 018°43'0 0.0
2015-May-17 23:33N 54°24' E 018°43'0 0.0
2015-May-17 22:33N 54°24' E 018°43'1 1.3
2015-May-17 21:33N 54°24' E 018°45'5 4.4
2015-May-17 20:32N 54°27' E 018°52'0 0.0
2015-May-17 19:32N 54°27' E 018°52'0 0.0
2015-May-17 18:32N 54°27' E 018°52'0 0.0
2015-May-17 17:32N 54°27' E 018°52'0 0.0
2015-May-17 16:32N 54°27' E 018°52'0 0.0
2015-May-17 15:32N 54°27' E 018°52'0 0.0
2015-May-17 14:32N 54°27' E 018°52'0 0.0
2015-May-17 13:32N 54°27' E 018°52'0 0.0
2015-May-17 12:32N 54°27' E 018°52'0 0.1
2015-May-17 11:32N 54°27' E 018°52'9 9.0
2015-May-17 10:34N 54°33' E 019°02'1111.5
2015-May-17 09:34N 54°45' E 019°04'1212.3
2015-May-17 08:33N 54°57' E 019°07'  
2015-May-13 11:11N 55°41' E 015°36'1011.6
2015-May-13 10:22N 55°37' E 015°21'911.6
2015-May-13 09:33N 55°32' E 015°07'1211.5
2015-May-13 08:32N 55°27' E 014°49'1211.3
2015-May-13 07:30N 55°19' E 014°33'1211.5
2015-May-13 06:30N 55°10' E 014°21'1111.5
2015-May-13 05:32N 55°01' E 014°09'1111.5
2015-May-13 04:33N 54°58' E 013°50'1211.6
2015-May-13 03:33N 54°54' E 013°31'1211.6
2015-May-13 02:34N 54°50' E 013°12'1211.6
2015-May-13 01:33N 54°47' E 012°53'1211.5
2015-May-13 00:32N 54°41' E 012°35'1010.6
2015-May-12 23:33N 54°36' E 012°20'1111.4
2015-May-12 22:33N 54°25' E 012°11'1111.4
2015-May-12 21:33N 54°25' E 011°51'1111.5
2015-May-12 20:33N 54°29' E 011°33'1211.6
2015-May-12 19:34N 54°34' E 011°15'1211.4
2015-May-12 18:32N 54°40' E 010°58'9110.0
2015-May-12 09:28N 56°10' E 011°15'1111.5
2015-May-12 08:33N 56°19' E 011°25'  
Track history (hours):
 
Tides and Currents Weather Stations Pressure Air Temp Water Temp Dewpoint Dewpoint Depression Visibility Wind Speed Wind Dir Waves Ship Positions

Ternholm

Last reported at 2015-May-22 07:33 UTC. Time now 2015-May-22 08:33 UTC.
Position N 52°28' E 004°09'.

Length 141 m; draft 7.9 m.

Type: Ship (hazmat cat B). MMSI: 219076000.

Date/timePositionNaut miles runAvg speedWind from/ knotsBaromVisibWave heightAir tempDewpointWater temp
2015-May-22 07:33N 52°28' E 004°09'0 0.0
2015-May-22 06:33N 52°28' E 004°09'0 0.0
2015-May-22 05:30N 52°28' E 004°09'0 0.0
2015-May-22 04:33N 52°28' E 004°09'0 0.0
2015-May-22 03:33N 52°28' E 004°09'0 0.0
2015-May-22 02:33N 52°28' E 004°09'0 0.1
2015-May-22 01:33N 52°28' E 004°09'0 0.0
2015-May-22 00:33N 52°28' E 004°09'0 0.0
2015-May-21 23:33N 52°28' E 004°09'0 0.0
2015-May-21 22:33N 52°28' E 004°09'0 0.1
2015-May-21 21:33N 52°28' E 004°09'0 0.1
2015-May-21 20:33N 52°28' E 004°09'0 0.0
2015-May-21 19:33N 52°28' E 004°09'0 0.0
2015-May-21 18:33N 52°28' E 004°09'0 0.0
2015-May-21 17:33N 52°28' E 004°09'0 0.0
2015-May-21 16:33N 52°28' E 004°09'0 0.0
2015-May-21 15:33N 52°28' E 004°09'1 0.6
2015-May-21 14:33N 52°27' E 004°09'9 9.4
2015-May-21 13:33N 52°37' E 004°04'1212.5
2015-May-21 12:33N 52°48' E 003°58'2411.8
2015-May-21 10:33N 53°08' E 004°21'1211.7
2015-May-21 09:29N 53°19' E 004°30'1111.0
2015-May-21 08:31N 53°29' E 004°38'1010.3
2015-May-21 07:33N 53°32' E 004°53'1010.2
2015-May-21 06:33N 53°36' E 005°09'1110.7
2015-May-21 05:33N 53°40' E 005°26'1111.3
2015-May-21 04:33N 53°43' E 005°44'1211.5
2015-May-21 03:33N 53°47' E 006°02'4410.9
2015-May-20 23:33N 53°58' E 007°14'1010.1
2015-May-20 22:33N 54°00' E 007°31'10 9.8
2015-May-20 21:33N 54°02' E 007°47'1110.7
2015-May-20 20:33N 54°01' E 008°05'1111.3
2015-May-20 19:33N 53°59' E 008°24'1514.8
2015-May-20 18:33N 53°51' E 008°45'1413.9
2015-May-20 17:33N 53°54' E 009°09'1 1.2
2015-May-20 16:33N 53°54' E 009°10'8 7.8
2015-May-20 15:33N 54°01' E 009°18'8 8.1
2015-May-20 14:33N 54°09' E 009°21'3 3.1
2015-May-20 13:33N 54°10' E 009°26'5 4.7
2015-May-20 12:33N 54°12' E 009°33'5 4.5
2015-May-20 11:32N 54°16' E 009°37'5 4.6
2015-May-20 10:33N 54°19' E 009°43'7 7.3
2015-May-20 09:33N 54°21' E 009°55'4 4.2
2015-May-20 08:33N 54°22' E 010°02'4 3.9
2015-May-20 07:33N 54°22' E 010°09'1 1.4
2015-May-20 06:33N 54°23' E 010°11'8 8.0
2015-May-20 05:33N 54°30' E 010°17'6 6.0
2015-May-20 04:33N 54°32' E 010°27'9 8.6
2015-May-20 03:33N 54°34' E 010°41'1110.7
2015-May-20 02:33N 54°36' E 010°59'1111.0
2015-May-20 01:33N 54°34' E 011°18'1211.6
2015-May-20 00:33N 54°29' E 011°36'1111.2
2015-May-19 23:33N 54°26' E 011°55'1110.2
2015-May-19 22:30N 54°29' E 012°12'2310.9
2015-May-19 20:26N 54°46' E 012°39'3711.2
2015-May-19 17:09N 54°45' E 013°42'2111.5
2015-May-19 15:17N 54°39' E 014°18'811.1
2015-May-19 14:33N 54°39' E 014°32'1111.4
2015-May-19 13:33N 54°42' E 014°51'1111.4
2015-May-19 12:33N 54°46' E 015°09'1111.4
2015-May-19 11:33N 54°50' E 015°28'8311.2
2015-May-19 04:09N 55°05' E 017°50'1811.4
2015-May-19 02:33N 55°05' E 018°22'1111.5
2015-May-19 01:33N 55°01' E 018°41'1111.0
2015-May-19 00:34N 54°54' E 018°56'1111.4
2015-May-18 23:33N 54°44' E 019°04'1110.8
2015-May-18 22:33N 54°33' E 019°04'10 9.8
2015-May-18 21:33N 54°26' E 018°52'6 5.3
2015-May-18 20:31N 54°24' E 018°43'0 0.0
2015-May-18 19:31N 54°24' E 018°43'0 0.0
2015-May-18 18:28N 54°24' E 018°43'0 0.0
2015-May-18 17:31N 54°24' E 018°43'0 0.0
2015-May-18 16:31N 54°24' E 018°43'0 0.0
2015-May-18 15:31N 54°24' E 018°43'0 0.0
2015-May-18 14:31N 54°24' E 018°43'0 0.0
2015-May-18 13:33N 54°24' E 018°43'0 0.0
2015-May-18 12:33N 54°24' E 018°43'0 0.0
2015-May-18 11:33N 54°24' E 018°43'0 0.0
2015-May-18 10:33N 54°24' E 018°43'0 0.0
2015-May-18 09:33N 54°24' E 018°43'0 0.0
2015-May-18 08:33N 54°24' E 018°43'0 0.0
2015-May-18 07:33N 54°24' E 018°43'0 0.0
2015-May-18 06:33N 54°24' E 018°43'0 0.0
2015-May-18 05:33N 54°24' E 018°43'0 0.0
2015-May-18 04:33N 54°24' E 018°43'0 0.0
2015-May-18 03:33N 54°24' E 018°43'0 0.0
2015-May-18 02:33N 54°24' E 018°43'0 0.0
2015-May-18 01:33N 54°24' E 018°43'0 0.0
2015-May-18 00:33N 54°24' E 018°43'0 0.0
2015-May-17 23:33N 54°24' E 018°43'0 0.0
2015-May-17 22:33N 54°24' E 018°43'1 1.3
2015-May-17 21:33N 54°24' E 018°45'5 4.4
2015-May-17 20:32N 54°27' E 018°52'0 0.0
2015-May-17 19:32N 54°27' E 018°52'0 0.0
2015-May-17 18:32N 54°27' E 018°52'0 0.0
2015-May-17 17:32N 54°27' E 018°52'0 0.0
2015-May-17 16:32N 54°27' E 018°52'0 0.0
2015-May-17 15:32N 54°27' E 018°52'0 0.0
2015-May-17 14:32N 54°27' E 018°52'0 0.0
2015-May-17 13:32N 54°27' E 018°52'0 0.0
2015-May-17 12:32N 54°27' E 018°52'0 0.1
2015-May-17 11:32N 54°27' E 018°52'9 9.0
2015-May-17 10:34N 54°33' E 019°02'1111.5
2015-May-17 09:34N 54°45' E 019°04'1212.3
2015-May-17 08:33N 54°57' E 019°07'  
2015-May-13 11:11N 55°41' E 015°36'1011.6
2015-May-13 10:22N 55°37' E 015°21'911.6
2015-May-13 09:33N 55°32' E 015°07'1211.5
2015-May-13 08:32N 55°27' E 014°49'1211.3
2015-May-13 07:30N 55°19' E 014°33'1211.5
2015-May-13 06:30N 55°10' E 014°21'1111.5
2015-May-13 05:32N 55°01' E 014°09'1111.5
2015-May-13 04:33N 54°58' E 013°50'1211.6
2015-May-13 03:33N 54°54' E 013°31'1211.6
2015-May-13 02:34N 54°50' E 013°12'1211.6
2015-May-13 01:33N 54°47' E 012°53'1211.5
2015-May-13 00:32N 54°41' E 012°35'1010.6
2015-May-12 23:33N 54°36' E 012°20'1111.4
2015-May-12 22:33N 54°25' E 012°11'1111.4
2015-May-12 21:33N 54°25' E 011°51'1111.5
2015-May-12 20:33N 54°29' E 011°33'1211.6
2015-May-12 19:34N 54°34' E 011°15'1211.4
2015-May-12 18:32N 54°40' E 010°58'9110.0
2015-May-12 09:28N 56°10' E 011°15'1111.5
2015-May-12 08:33N 56°19' E 011°25'  

Dump ship's entire track history